Fort Drum, NY

7:37 AM EST on December 04, 2016 (GMT -0500)
Calcium NY | | Change Station

Elev 489 ft 44.03 °N, 75.83 °W | Updated 28 seconds ago

Overcast
Overcast
27.3 °F
Feels Like 27 °F
N
0.0
Wind Variable Wind from East
Gusts 1.0 mph

Today
High -- | Low -- °F
--% Chance of Precip.
Yesterday
High -- | Low -- °F
Precip. -- in
Pressure 30.26 in
Visibility 10.0 miles
Clouds Overcast 1900 ft
Windchill 27 °F
Dew Point 19 °F
Humidity 70%
Rainfall 0.00 in
Snow Depth Not available.
7:21 AM 4:25 PM
Waxing Crescent, 22% visible
METAR KGTB 041158Z AUTO 00000KT 10SM OVC019 M03/M07 A3023 RMK AO2 SLP246 T10281073 11017 21028 50002
Pressure 30.26 in
Visibility 10.0 miles
Clouds Overcast 1900 ft
Windchill 27 °F
Dew Point 19 °F
Humidity 70%
Rainfall 0.00 in
Snow Depth Not available.
7:21 AM 4:25 PM
Waxing Crescent, 22% visible
METAR KGTB 041158Z AUTO 00000KT 10SM OVC019 M03/M07 A3023 RMK AO2 SLP246 T10281073 11017 21028 50002

10-Day Weather Forecast

Almanac

Astronomy

Dec. 04, 2016 Rise Set
Actual Time
Civil Twilight
Nautical Twilight
Astronomical Twilight
Moon
Length of Visible Light
Length of Day
Tomorrow will be .
, % of the Moon is Illuminated

Today's Extremes

State Highs State Lows

Community

WunderPhotos

Upload Photos

1,955,593 photos uploaded!

WunderBlog® & News

Nearby

Air Quality

  Air Quality AQ Index Pollutant
Not available.

Snow Depth

Station Depth Elevation

Earthquake Activity

City Distance Mag. Time & Date
Minimum magnitude displayed is 2.5.

Coastal Water Temperatures

Place Temperature

Stations

Nearby Weather Stations

Station Location Temp. Windchill Dew Point Humidity Wind Precip. Elev Updated Type
                   

Watches & Warnings

There are currently no watches in effect.